sensor_id;sensor_type;location;lat;lon;timestamp;P1;durP1;ratioP1;P2;durP2;ratioP2
38113;SDS011;23926;53.222;6.354;2023-04-15T00:02:20;12.45;;;6.45;;
38113;SDS011;23926;53.222;6.354;2023-04-15T00:04:45;14.30;;;7.88;;
38113;SDS011;23926;53.222;6.354;2023-04-15T00:07:11;16.52;;;8.40;;
38113;SDS011;23926;53.222;6.354;2023-04-15T00:09:37;15.20;;;7.95;;
38113;SDS011;23926;53.222;6.354;2023-04-15T00:12:03;15.70;;;8.45;;
38113;SDS011;23926;53.222;6.354;2023-04-15T00:14:29;17.73;;;9.35;;
38113;SDS011;23926;53.222;6.354;2023-04-15T00:16:55;12.57;;;6.95;;
38113;SDS011;23926;53.222;6.354;2023-04-15T00:19:21;21.70;;;8.57;;
38113;SDS011;23926;53.222;6.354;2023-04-15T00:21:48;16.02;;;10.45;;
38113;SDS011;23926;53.222;6.354;2023-04-15T00:24:13;15.38;;;8.38;;
38113;SDS011;23926;53.222;6.354;2023-04-15T00:26:39;17.05;;;9.07;;
38113;SDS011;23926;53.222;6.354;2023-04-15T00:29:04;16.85;;;10.15;;
38113;SDS011;23926;53.222;6.354;2023-04-15T00:31:30;19.58;;;9.95;;
38113;SDS011;23926;53.222;6.354;2023-04-15T00:33:56;17.42;;;9.80;;
38113;SDS011;23926;53.222;6.354;2023-04-15T00:36:21;15.20;;;8.45;;
38113;SDS011;23926;53.222;6.354;2023-04-15T00:38:47;16.27;;;9.02;;
38113;SDS011;23926;53.222;6.354;2023-04-15T00:41:13;17.27;;;8.68;;
38113;SDS011;23926;53.222;6.354;2023-04-15T00:43:38;17.50;;;10.48;;
38113;SDS011;23926;53.222;6.354;2023-04-15T00:46:04;17.63;;;8.25;;
38113;SDS011;23926;53.222;6.354;2023-04-15T00:48:30;20.17;;;11.25;;
38113;SDS011;23926;53.222;6.354;2023-04-15T00:50:56;21.42;;;11.82;;
38113;SDS011;23926;53.222;6.354;2023-04-15T00:53:22;20.85;;;10.65;;
38113;SDS011;23926;53.222;6.354;2023-04-15T00:55:47;18.30;;;9.70;;
38113;SDS011;23926;53.222;6.354;2023-04-15T00:58:13;25.48;;;12.00;;
38113;SDS011;23926;53.222;6.354;2023-04-15T01:00:39;26.25;;;11.65;;
38113;SDS011;23926;53.222;6.354;2023-04-15T01:03:05;26.52;;;11.68;;
38113;SDS011;23926;53.222;6.354;2023-04-15T01:05:31;23.50;;;12.10;;
38113;SDS011;23926;53.222;6.354;2023-04-15T01:07:57;18.38;;;10.80;;
38113;SDS011;23926;53.222;6.354;2023-04-15T01:10:22;17.23;;;10.13;;
38113;SDS011;23926;53.222;6.354;2023-04-15T01:12:47;18.65;;;10.50;;
38113;SDS011;23926;53.222;6.354;2023-04-15T01:15:13;24.10;;;12.98;;
38113;SDS011;23926;53.222;6.354;2023-04-15T01:17:40;22.67;;;13.10;;
38113;SDS011;23926;53.222;6.354;2023-04-15T01:20:06;21.77;;;10.77;;
38113;SDS011;23926;53.222;6.354;2023-04-15T01:22:34;18.60;;;11.05;;
38113;SDS011;23926;53.222;6.354;2023-04-15T01:25:01;26.83;;;12.68;;
38113;SDS011;23926;53.222;6.354;2023-04-15T01:27:32;15.98;;;10.20;;
38113;SDS011;23926;53.222;6.354;2023-04-15T01:29:59;19.42;;;11.23;;
38113;SDS011;23926;53.222;6.354;2023-04-15T01:32:25;22.33;;;12.63;;
38113;SDS011;23926;53.222;6.354;2023-04-15T01:34:51;28.70;;;12.90;;
38113;SDS011;23926;53.222;6.354;2023-04-15T01:37:16;25.60;;;13.82;;
38113;SDS011;23926;53.222;6.354;2023-04-15T01:39:42;23.85;;;12.63;;
38113;SDS011;23926;53.222;6.354;2023-04-15T01:42:07;20.90;;;11.38;;
38113;SDS011;23926;53.222;6.354;2023-04-15T01:44:32;25.38;;;13.05;;
38113;SDS011;23926;53.222;6.354;2023-04-15T01:46:58;30.50;;;15.45;;
38113;SDS011;23926;53.222;6.354;2023-04-15T01:49:23;16.40;;;10.65;;
38113;SDS011;23926;53.222;6.354;2023-04-15T01:51:49;25.17;;;15.07;;
38113;SDS011;23926;53.222;6.354;2023-04-15T01:54:14;26.75;;;14.07;;
38113;SDS011;23926;53.222;6.354;2023-04-15T01:56:40;17.10;;;10.15;;
38113;SDS011;23926;53.222;6.354;2023-04-15T01:59:06;26.92;;;14.35;;
38113;SDS011;23926;53.222;6.354;2023-04-15T02:01:31;21.02;;;13.88;;
38113;SDS011;23926;53.222;6.354;2023-04-15T02:03:57;16.60;;;11.48;;
38113;SDS011;23926;53.222;6.354;2023-04-15T02:06:22;22.00;;;12.90;;
38113;SDS011;23926;53.222;6.354;2023-04-15T02:08:48;23.13;;;14.15;;
38113;SDS011;23926;53.222;6.354;2023-04-15T02:11:13;25.77;;;14.50;;
38113;SDS011;23926;53.222;6.354;2023-04-15T02:13:39;29.33;;;14.88;;
38113;SDS011;23926;53.222;6.354;2023-04-15T02:16:14;24.42;;;14.00;;
38113;SDS011;23926;53.222;6.354;2023-04-15T02:18:43;29.85;;;16.13;;
38113;SDS011;23926;53.222;6.354;2023-04-15T02:21:09;19.88;;;13.05;;
38113;SDS011;23926;53.222;6.354;2023-04-15T02:23:35;30.15;;;17.17;;
38113;SDS011;23926;53.222;6.354;2023-04-15T02:26:00;30.88;;;17.85;;
38113;SDS011;23926;53.222;6.354;2023-04-15T02:28:26;24.52;;;13.52;;
38113;SDS011;23926;53.222;6.354;2023-04-15T02:30:51;28.67;;;15.32;;
38113;SDS011;23926;53.222;6.354;2023-04-15T02:33:18;26.02;;;14.73;;
38113;SDS011;23926;53.222;6.354;2023-04-15T02:35:44;33.05;;;17.38;;
38113;SDS011;23926;53.222;6.354;2023-04-15T02:38:10;26.58;;;16.85;;
38113;SDS011;23926;53.222;6.354;2023-04-15T02:40:36;22.23;;;14.25;;
38113;SDS011;23926;53.222;6.354;2023-04-15T02:43:01;24.45;;;15.27;;
38113;SDS011;23926;53.222;6.354;2023-04-15T02:45:27;27.95;;;15.05;;
38113;SDS011;23926;53.222;6.354;2023-04-15T02:47:52;32.08;;;16.77;;
38113;SDS011;23926;53.222;6.354;2023-04-15T02:50:18;22.52;;;13.98;;
38113;SDS011;23926;53.222;6.354;2023-04-15T02:52:45;25.73;;;15.23;;
38113;SDS011;23926;53.222;6.354;2023-04-15T02:55:10;21.85;;;13.85;;
38113;SDS011;23926;53.222;6.354;2023-04-15T02:57:36;25.65;;;15.35;;
38113;SDS011;23926;53.222;6.354;2023-04-15T03:00:03;29.98;;;16.55;;
38113;SDS011;23926;53.222;6.354;2023-04-15T03:02:33;24.25;;;14.98;;
38113;SDS011;23926;53.222;6.354;2023-04-15T03:05:00;27.38;;;15.23;;
38113;SDS011;23926;53.222;6.354;2023-04-15T03:07:25;28.42;;;15.95;;
38113;SDS011;23926;53.222;6.354;2023-04-15T03:09:50;27.35;;;16.70;;
38113;SDS011;23926;53.222;6.354;2023-04-15T03:12:16;28.20;;;16.27;;
38113;SDS011;23926;53.222;6.354;2023-04-15T03:14:41;31.45;;;18.58;;
38113;SDS011;23926;53.222;6.354;2023-04-15T03:17:07;26.55;;;15.38;;
38113;SDS011;23926;53.222;6.354;2023-04-15T03:19:32;33.40;;;17.83;;
38113;SDS011;23926;53.222;6.354;2023-04-15T03:21:58;23.35;;;13.73;;
38113;SDS011;23926;53.222;6.354;2023-04-15T03:24:23;26.83;;;16.90;;
38113;SDS011;23926;53.222;6.354;2023-04-15T03:26:49;33.35;;;17.67;;
38113;SDS011;23926;53.222;6.354;2023-04-15T03:29:14;27.73;;;14.75;;
38113;SDS011;23926;53.222;6.354;2023-04-15T03:31:40;24.20;;;15.20;;
38113;SDS011;23926;53.222;6.354;2023-04-15T03:34:06;28.17;;;16.30;;
38113;SDS011;23926;53.222;6.354;2023-04-15T03:36:31;26.20;;;16.30;;
38113;SDS011;23926;53.222;6.354;2023-04-15T03:38:57;33.55;;;18.63;;
38113;SDS011;23926;53.222;6.354;2023-04-15T03:41:23;28.73;;;16.38;;
38113;SDS011;23926;53.222;6.354;2023-04-15T03:43:48;27.25;;;17.00;;
38113;SDS011;23926;53.222;6.354;2023-04-15T03:46:16;31.75;;;18.08;;
38113;SDS011;23926;53.222;6.354;2023-04-15T03:48:42;35.40;;;19.60;;
38113;SDS011;23926;53.222;6.354;2023-04-15T03:51:07;28.88;;;18.10;;
38113;SDS011;23926;53.222;6.354;2023-04-15T03:53:32;31.08;;;18.52;;
38113;SDS011;23926;53.222;6.354;2023-04-15T03:55:58;30.48;;;17.42;;
38113;SDS011;23926;53.222;6.354;2023-04-15T03:58:23;30.60;;;17.80;;
38113;SDS011;23926;53.222;6.354;2023-04-15T04:00:49;30.38;;;17.95;;
38113;SDS011;23926;53.222;6.354;2023-04-15T04:03:14;24.33;;;15.50;;
38113;SDS011;23926;53.222;6.354;2023-04-15T04:05:39;31.65;;;17.45;;
38113;SDS011;23926;53.222;6.354;2023-04-15T04:08:05;33.22;;;18.58;;
38113;SDS011;23926;53.222;6.354;2023-04-15T04:10:31;38.13;;;21.23;;
38113;SDS011;23926;53.222;6.354;2023-04-15T04:12:56;34.13;;;18.83;;
38113;SDS011;23926;53.222;6.354;2023-04-15T04:15:22;41.15;;;21.52;;
38113;SDS011;23926;53.222;6.354;2023-04-15T04:17:47;37.92;;;20.25;;
38113;SDS011;23926;53.222;6.354;2023-04-15T04:20:13;30.58;;;18.92;;
38113;SDS011;23926;53.222;6.354;2023-04-15T04:22:38;28.70;;;16.80;;
38113;SDS011;23926;53.222;6.354;2023-04-15T04:25:05;30.55;;;18.02;;
38113;SDS011;23926;53.222;6.354;2023-04-15T04:27:32;33.08;;;18.67;;
38113;SDS011;23926;53.222;6.354;2023-04-15T04:29:58;35.60;;;20.65;;
38113;SDS011;23926;53.222;6.354;2023-04-15T04:32:23;34.63;;;19.45;;
38113;SDS011;23926;53.222;6.354;2023-04-15T04:34:48;40.70;;;21.25;;
38113;SDS011;23926;53.222;6.354;2023-04-15T04:37:14;30.83;;;18.05;;
38113;SDS011;23926;53.222;6.354;2023-04-15T04:39:40;37.90;;;18.65;;
38113;SDS011;23926;53.222;6.354;2023-04-15T04:42:05;42.72;;;20.85;;
38113;SDS011;23926;53.222;6.354;2023-04-15T04:44:31;30.17;;;17.73;;
38113;SDS011;23926;53.222;6.354;2023-04-15T04:46:56;23.38;;;15.15;;
38113;SDS011;23926;53.222;6.354;2023-04-15T04:49:21;30.65;;;18.83;;
38113;SDS011;23926;53.222;6.354;2023-04-15T04:51:47;30.90;;;16.75;;
38113;SDS011;23926;53.222;6.354;2023-04-15T04:54:12;28.60;;;16.15;;
38113;SDS011;23926;53.222;6.354;2023-04-15T04:56:38;25.25;;;15.70;;
38113;SDS011;23926;53.222;6.354;2023-04-15T04:59:04;26.88;;;15.93;;
38113;SDS011;23926;53.222;6.354;2023-04-15T05:01:29;31.80;;;17.75;;
38113;SDS011;23926;53.222;6.354;2023-04-15T05:03:55;27.48;;;15.80;;
38113;SDS011;23926;53.222;6.354;2023-04-15T05:06:20;26.50;;;15.75;;
38113;SDS011;23926;53.222;6.354;2023-04-15T05:08:46;26.55;;;15.30;;
38113;SDS011;23926;53.222;6.354;2023-04-15T05:11:12;26.45;;;15.30;;
38113;SDS011;23926;53.222;6.354;2023-04-15T05:13:37;26.98;;;16.08;;
38113;SDS011;23926;53.222;6.354;2023-04-15T05:16:05;30.02;;;16.40;;
38113;SDS011;23926;53.222;6.354;2023-04-15T05:18:31;29.92;;;17.88;;
38113;SDS011;23926;53.222;6.354;2023-04-15T05:20:57;27.55;;;17.13;;
38113;SDS011;23926;53.222;6.354;2023-04-15T05:23:23;29.10;;;17.98;;
38113;SDS011;23926;53.222;6.354;2023-04-15T05:25:48;29.65;;;16.35;;
38113;SDS011;23926;53.222;6.354;2023-04-15T05:28:13;34.58;;;19.08;;
38113;SDS011;23926;53.222;6.354;2023-04-15T05:30:39;38.15;;;20.60;;
38113;SDS011;23926;53.222;6.354;2023-04-15T05:33:05;28.08;;;16.88;;
38113;SDS011;23926;53.222;6.354;2023-04-15T05:35:30;31.58;;;18.48;;
38113;SDS011;23926;53.222;6.354;2023-04-15T05:37:56;31.55;;;17.55;;
38113;SDS011;23926;53.222;6.354;2023-04-15T05:40:21;27.63;;;16.83;;
38113;SDS011;23926;53.222;6.354;2023-04-15T05:42:47;23.80;;;15.25;;
38113;SDS011;23926;53.222;6.354;2023-04-15T05:45:12;35.53;;;18.85;;
38113;SDS011;23926;53.222;6.354;2023-04-15T05:47:38;25.70;;;16.10;;
38113;SDS011;23926;53.222;6.354;2023-04-15T05:50:03;27.90;;;16.02;;
38113;SDS011;23926;53.222;6.354;2023-04-15T05:52:30;25.35;;;15.68;;
38113;SDS011;23926;53.222;6.354;2023-04-15T05:54:55;28.90;;;15.90;;
38113;SDS011;23926;53.222;6.354;2023-04-15T05:57:21;30.48;;;16.80;;
38113;SDS011;23926;53.222;6.354;2023-04-15T05:59:47;25.20;;;15.27;;
38113;SDS011;23926;53.222;6.354;2023-04-15T06:02:13;24.45;;;15.52;;
38113;SDS011;23926;53.222;6.354;2023-04-15T06:04:38;26.38;;;15.02;;
38113;SDS011;23926;53.222;6.354;2023-04-15T06:07:03;26.38;;;15.90;;
38113;SDS011;23926;53.222;6.354;2023-04-15T06:09:29;27.90;;;16.85;;
38113;SDS011;23926;53.222;6.354;2023-04-15T06:11:54;27.58;;;15.82;;
38113;SDS011;23926;53.222;6.354;2023-04-15T06:14:21;35.53;;;19.52;;
38113;SDS011;23926;53.222;6.354;2023-04-15T06:16:47;28.90;;;17.63;;
38113;SDS011;23926;53.222;6.354;2023-04-15T06:19:12;35.85;;;19.17;;
38113;SDS011;23926;53.222;6.354;2023-04-15T06:21:38;29.58;;;18.00;;
38113;SDS011;23926;53.222;6.354;2023-04-15T06:24:04;36.97;;;19.83;;
38113;SDS011;23926;53.222;6.354;2023-04-15T06:26:29;35.80;;;19.85;;
38113;SDS011;23926;53.222;6.354;2023-04-15T06:28:55;35.85;;;20.27;;
38113;SDS011;23926;53.222;6.354;2023-04-15T06:31:21;43.35;;;20.73;;
38113;SDS011;23926;53.222;6.354;2023-04-15T06:33:46;39.22;;;20.45;;
38113;SDS011;23926;53.222;6.354;2023-04-15T06:36:12;36.70;;;20.17;;
38113;SDS011;23926;53.222;6.354;2023-04-15T06:38:37;33.25;;;18.67;;
38113;SDS011;23926;53.222;6.354;2023-04-15T06:41:03;32.70;;;18.10;;
38113;SDS011;23926;53.222;6.354;2023-04-15T06:43:28;34.58;;;20.08;;
38113;SDS011;23926;53.222;6.354;2023-04-15T06:45:54;40.22;;;19.45;;
38113;SDS011;23926;53.222;6.354;2023-04-15T06:48:20;34.58;;;19.65;;
38113;SDS011;23926;53.222;6.354;2023-04-15T06:50:46;32.20;;;17.25;;
38113;SDS011;23926;53.222;6.354;2023-04-15T06:53:13;40.83;;;19.58;;
38113;SDS011;23926;53.222;6.354;2023-04-15T06:55:38;39.05;;;20.35;;
38113;SDS011;23926;53.222;6.354;2023-04-15T06:58:04;40.55;;;19.75;;
38113;SDS011;23926;53.222;6.354;2023-04-15T07:00:29;28.02;;;17.00;;
38113;SDS011;23926;53.222;6.354;2023-04-15T07:02:55;30.65;;;16.92;;
38113;SDS011;23926;53.222;6.354;2023-04-15T07:05:21;28.17;;;15.90;;
38113;SDS011;23926;53.222;6.354;2023-04-15T07:07:46;25.58;;;14.60;;
38113;SDS011;23926;53.222;6.354;2023-04-15T07:10:11;22.25;;;12.95;;
38113;SDS011;23926;53.222;6.354;2023-04-15T07:12:38;22.75;;;13.18;;
38113;SDS011;23926;53.222;6.354;2023-04-15T07:15:04;25.40;;;12.60;;
38113;SDS011;23926;53.222;6.354;2023-04-15T07:17:30;21.27;;;11.82;;
38113;SDS011;23926;53.222;6.354;2023-04-15T07:19:56;22.90;;;11.52;;
38113;SDS011;23926;53.222;6.354;2023-04-15T07:22:21;17.02;;;11.60;;
38113;SDS011;23926;53.222;6.354;2023-04-15T07:24:47;15.07;;;9.60;;
38113;SDS011;23926;53.222;6.354;2023-04-15T07:27:12;14.38;;;8.65;;
38113;SDS011;23926;53.222;6.354;2023-04-15T07:29:37;13.95;;;8.50;;
38113;SDS011;23926;53.222;6.354;2023-04-15T07:32:03;19.90;;;9.10;;
38113;SDS011;23926;53.222;6.354;2023-04-15T07:34:28;14.60;;;9.32;;
38113;SDS011;23926;53.222;6.354;2023-04-15T07:36:54;15.43;;;10.00;;
38113;SDS011;23926;53.222;6.354;2023-04-15T07:39:19;15.25;;;9.55;;
38113;SDS011;23926;53.222;6.354;2023-04-15T07:41:45;22.20;;;10.13;;
38113;SDS011;23926;53.222;6.354;2023-04-15T07:44:10;16.67;;;10.02;;
38113;SDS011;23926;53.222;6.354;2023-04-15T07:46:36;19.98;;;10.20;;
38113;SDS011;23926;53.222;6.354;2023-04-15T07:49:02;15.73;;;10.20;;
38113;SDS011;23926;53.222;6.354;2023-04-15T07:51:27;17.40;;;9.65;;
38113;SDS011;23926;53.222;6.354;2023-04-15T07:53:53;15.70;;;9.80;;
38113;SDS011;23926;53.222;6.354;2023-04-15T07:56:19;17.98;;;10.45;;
38113;SDS011;23926;53.222;6.354;2023-04-15T07:58:44;13.85;;;8.50;;
38113;SDS011;23926;53.222;6.354;2023-04-15T08:01:10;18.60;;;10.30;;
38113;SDS011;23926;53.222;6.354;2023-04-15T08:03:35;18.17;;;9.90;;
38113;SDS011;23926;53.222;6.354;2023-04-15T08:06:01;18.38;;;10.30;;
38113;SDS011;23926;53.222;6.354;2023-04-15T08:08:27;17.98;;;9.18;;
38113;SDS011;23926;53.222;6.354;2023-04-15T08:10:52;17.70;;;9.48;;
38113;SDS011;23926;53.222;6.354;2023-04-15T08:13:17;15.43;;;8.68;;
38113;SDS011;23926;53.222;6.354;2023-04-15T08:15:43;15.75;;;8.82;;
38113;SDS011;23926;53.222;6.354;2023-04-15T08:18:08;18.33;;;8.20;;
38113;SDS011;23926;53.222;6.354;2023-04-15T08:20:34;11.90;;;7.80;;
38113;SDS011;23926;53.222;6.354;2023-04-15T08:23:01;13.50;;;8.48;;
38113;SDS011;23926;53.222;6.354;2023-04-15T08:25:27;12.23;;;7.65;;
38113;SDS011;23926;53.222;6.354;2023-04-15T08:27:56;11.43;;;7.35;;
38113;SDS011;23926;53.222;6.354;2023-04-15T08:30:22;12.80;;;7.82;;
38113;SDS011;23926;53.222;6.354;2023-04-15T08:32:49;10.27;;;6.07;;
38113;SDS011;23926;53.222;6.354;2023-04-15T08:35:15;10.95;;;6.53;;
38113;SDS011;23926;53.222;6.354;2023-04-15T08:37:40;13.15;;;6.43;;
38113;SDS011;23926;53.222;6.354;2023-04-15T08:40:06;12.63;;;6.95;;
38113;SDS011;23926;53.222;6.354;2023-04-15T08:42:36;11.90;;;6.30;;
38113;SDS011;23926;53.222;6.354;2023-04-15T08:45:08;13.07;;;6.28;;
38113;SDS011;23926;53.222;6.354;2023-04-15T08:47:35;8.32;;;5.13;;
38113;SDS011;23926;53.222;6.354;2023-04-15T08:50:03;10.93;;;5.45;;
38113;SDS011;23926;53.222;6.354;2023-04-15T08:52:29;9.15;;;5.10;;
38113;SDS011;23926;53.222;6.354;2023-04-15T08:54:55;8.77;;;5.72;;
38113;SDS011;23926;53.222;6.354;2023-04-15T08:57:25;13.02;;;5.80;;
38113;SDS011;23926;53.222;6.354;2023-04-15T08:59:52;11.15;;;5.68;;
38113;SDS011;23926;53.222;6.354;2023-04-15T09:02:19;13.63;;;6.18;;
38113;SDS011;23926;53.222;6.354;2023-04-15T09:04:46;10.00;;;6.20;;
38113;SDS011;23926;53.222;6.354;2023-04-15T09:07:11;10.60;;;5.45;;
38113;SDS011;23926;53.222;6.354;2023-04-15T09:09:36;9.98;;;4.85;;
38113;SDS011;23926;53.222;6.354;2023-04-15T09:12:04;8.75;;;5.60;;
38113;SDS011;23926;53.222;6.354;2023-04-15T09:14:29;9.63;;;4.68;;
38113;SDS011;23926;53.222;6.354;2023-04-15T09:17:02;11.60;;;5.15;;
38113;SDS011;23926;53.222;6.354;2023-04-15T09:19:28;10.68;;;4.90;;
38113;SDS011;23926;53.222;6.354;2023-04-15T09:21:55;7.25;;;3.60;;
38113;SDS011;23926;53.222;6.354;2023-04-15T09:24:22;6.22;;;2.95;;
38113;SDS011;23926;53.222;6.354;2023-04-15T09:26:51;8.63;;;3.90;;
38113;SDS011;23926;53.222;6.354;2023-04-15T09:29:18;8.63;;;3.20;;
38113;SDS011;23926;53.222;6.354;2023-04-15T09:31:44;7.93;;;3.20;;
38113;SDS011;23926;53.222;6.354;2023-04-15T09:34:10;5.70;;;2.67;;
38113;SDS011;23926;53.222;6.354;2023-04-15T09:39:20;6.75;;;2.83;;
38113;SDS011;23926;53.222;6.354;2023-04-15T09:41:46;4.35;;;2.28;;
38113;SDS011;23926;53.222;6.354;2023-04-15T09:44:27;2.55;;;1.90;;
38113;SDS011;23926;53.222;6.354;2023-04-15T09:46:53;2.65;;;2.10;;
38113;SDS011;23926;53.222;6.354;2023-04-15T09:49:18;3.20;;;2.05;;
38113;SDS011;23926;53.222;6.354;2023-04-15T09:51:44;5.55;;;2.92;;
38113;SDS011;23926;53.222;6.354;2023-04-15T09:54:11;5.13;;;2.30;;
38113;SDS011;23926;53.222;6.354;2023-04-15T09:56:37;5.97;;;2.60;;
38113;SDS011;23926;53.222;6.354;2023-04-15T09:59:05;5.68;;;2.20;;
38113;SDS011;23926;53.222;6.354;2023-04-15T10:01:34;3.60;;;2.50;;
38113;SDS011;23926;53.222;6.354;2023-04-15T10:04:03;5.03;;;2.25;;
38113;SDS011;23926;53.222;6.354;2023-04-15T10:06:29;5.65;;;2.67;;
38113;SDS011;23926;53.222;6.354;2023-04-15T10:08:58;2.55;;;2.33;;
38113;SDS011;23926;53.222;6.354;2023-04-15T10:11:27;4.05;;;2.22;;
38113;SDS011;23926;53.222;6.354;2023-04-15T10:13:53;5.97;;;2.85;;
38113;SDS011;23926;53.222;6.354;2023-04-15T10:16:20;4.50;;;2.60;;
38113;SDS011;23926;53.222;6.354;2023-04-15T10:18:52;4.50;;;2.50;;
38113;SDS011;23926;53.222;6.354;2023-04-15T10:21:19;4.88;;;2.75;;
38113;SDS011;23926;53.222;6.354;2023-04-15T10:23:46;4.57;;;2.35;;
38113;SDS011;23926;53.222;6.354;2023-04-15T10:26:12;4.93;;;2.55;;
38113;SDS011;23926;53.222;6.354;2023-04-15T10:28:42;3.92;;;2.28;;
38113;SDS011;23926;53.222;6.354;2023-04-15T10:31:11;6.50;;;2.60;;
38113;SDS011;23926;53.222;6.354;2023-04-15T10:33:39;4.57;;;2.45;;
38113;SDS011;23926;53.222;6.354;2023-04-15T10:36:06;8.70;;;2.97;;
38113;SDS011;23926;53.222;6.354;2023-04-15T10:43:38;6.70;;;2.47;;
38113;SDS011;23926;53.222;6.354;2023-04-15T10:46:04;5.15;;;2.50;;
38113;SDS011;23926;53.222;6.354;2023-04-15T10:48:30;9.98;;;3.22;;
38113;SDS011;23926;53.222;6.354;2023-04-15T10:50:56;6.25;;;2.55;;
38113;SDS011;23926;53.222;6.354;2023-04-15T10:53:27;5.70;;;2.60;;
38113;SDS011;23926;53.222;6.354;2023-04-15T10:55:53;5.93;;;2.53;;
38113;SDS011;23926;53.222;6.354;2023-04-15T10:58:22;8.95;;;3.35;;
38113;SDS011;23926;53.222;6.354;2023-04-15T11:00:50;5.65;;;3.05;;
38113;SDS011;23926;53.222;6.354;2023-04-15T11:03:20;9.05;;;3.05;;
38113;SDS011;23926;53.222;6.354;2023-04-15T11:08:51;5.15;;;2.80;;
38113;SDS011;23926;53.222;6.354;2023-04-15T11:11:19;8.25;;;3.50;;
38113;SDS011;23926;53.222;6.354;2023-04-15T11:13:49;5.40;;;2.55;;
38113;SDS011;23926;53.222;6.354;2023-04-15T11:16:15;4.50;;;2.95;;
38113;SDS011;23926;53.222;6.354;2023-04-15T11:18:41;8.52;;;3.45;;
38113;SDS011;23926;53.222;6.354;2023-04-15T11:21:07;9.38;;;3.50;;
38113;SDS011;23926;53.222;6.354;2023-04-15T11:26:08;9.75;;;3.03;;
38113;SDS011;23926;53.222;6.354;2023-04-15T11:28:38;8.52;;;2.70;;
38113;SDS011;23926;53.222;6.354;2023-04-15T11:31:09;6.00;;;2.60;;
38113;SDS011;23926;53.222;6.354;2023-04-15T11:33:46;6.13;;;2.67;;
38113;SDS011;23926;53.222;6.354;2023-04-15T11:36:23;8.52;;;2.78;;
38113;SDS011;23926;53.222;6.354;2023-04-15T11:38:51;9.63;;;2.42;;
38113;SDS011;23926;53.222;6.354;2023-04-15T11:41:23;6.43;;;2.53;;
38113;SDS011;23926;53.222;6.354;2023-04-15T11:43:49;9.45;;;2.47;;
38113;SDS011;23926;53.222;6.354;2023-04-15T11:46:15;10.88;;;2.85;;
38113;SDS011;23926;53.222;6.354;2023-04-15T11:48:41;10.10;;;2.22;;
38113;SDS011;23926;53.222;6.354;2023-04-15T11:51:08;6.47;;;2.45;;
38113;SDS011;23926;53.222;6.354;2023-04-15T11:56:01;11.63;;;2.78;;
38113;SDS011;23926;53.222;6.354;2023-04-15T11:58:27;12.60;;;3.35;;
38113;SDS011;23926;53.222;6.354;2023-04-15T12:00:54;10.30;;;2.60;;
38113;SDS011;23926;53.222;6.354;2023-04-15T12:14:25;15.40;;;2.85;;
38113;SDS011;23926;53.222;6.354;2023-04-15T12:22:12;11.13;;;2.85;;
38113;SDS011;23926;53.222;6.354;2023-04-15T12:24:40;5.90;;;2.42;;
38113;SDS011;23926;53.222;6.354;2023-04-15T12:27:09;8.75;;;2.60;;
38113;SDS011;23926;53.222;6.354;2023-04-15T12:29:36;9.32;;;2.28;;
38113;SDS011;23926;53.222;6.354;2023-04-15T12:32:06;9.70;;;2.78;;
38113;SDS011;23926;53.222;6.354;2023-04-15T12:34:37;6.25;;;1.88;;
38113;SDS011;23926;53.222;6.354;2023-04-15T12:37:04;10.23;;;1.90;;
38113;SDS011;23926;53.222;6.354;2023-04-15T12:39:33;9.35;;;2.42;;
38113;SDS011;23926;53.222;6.354;2023-04-15T12:42:00;9.07;;;2.45;;
38113;SDS011;23926;53.222;6.354;2023-04-15T12:44:26;18.40;;;2.80;;
38113;SDS011;23926;53.222;6.354;2023-04-15T12:46:52;14.48;;;2.13;;
38113;SDS011;23926;53.222;6.354;2023-04-15T12:49:19;18.17;;;2.58;;
38113;SDS011;23926;53.222;6.354;2023-04-15T12:51:46;11.65;;;2.88;;
38113;SDS011;23926;53.222;6.354;2023-04-15T12:54:15;15.63;;;2.85;;
38113;SDS011;23926;53.222;6.354;2023-04-15T12:56:41;5.60;;;1.90;;
38113;SDS011;23926;53.222;6.354;2023-04-15T12:59:07;10.20;;;3.15;;
38113;SDS011;23926;53.222;6.354;2023-04-15T13:01:32;8.82;;;2.15;;
38113;SDS011;23926;53.222;6.354;2023-04-15T13:03:58;12.20;;;2.33;;
38113;SDS011;23926;53.222;6.354;2023-04-15T13:06:23;19.30;;;3.20;;
38113;SDS011;23926;53.222;6.354;2023-04-15T13:08:48;10.77;;;2.72;;
38113;SDS011;23926;53.222;6.354;2023-04-15T13:11:14;11.23;;;2.55;;
38113;SDS011;23926;53.222;6.354;2023-04-15T13:13:41;8.10;;;2.33;;
38113;SDS011;23926;53.222;6.354;2023-04-15T13:16:06;19.20;;;3.97;;
38113;SDS011;23926;53.222;6.354;2023-04-15T13:18:32;32.88;;;14.07;;
38113;SDS011;23926;53.222;6.354;2023-04-15T13:20:58;15.18;;;5.50;;
38113;SDS011;23926;53.222;6.354;2023-04-15T13:23:25;33.33;;;11.98;;
38113;SDS011;23926;53.222;6.354;2023-04-15T13:25:50;9.57;;;2.38;;
38113;SDS011;23926;53.222;6.354;2023-04-15T13:28:16;15.90;;;2.88;;
38113;SDS011;23926;53.222;6.354;2023-04-15T13:30:41;18.50;;;3.33;;
38113;SDS011;23926;53.222;6.354;2023-04-15T13:33:08;14.25;;;2.45;;
38113;SDS011;23926;53.222;6.354;2023-04-15T13:35:34;8.30;;;2.65;;
38113;SDS011;23926;53.222;6.354;2023-04-15T13:37:59;12.70;;;3.28;;
38113;SDS011;23926;53.222;6.354;2023-04-15T13:40:25;10.38;;;2.20;;
38113;SDS011;23926;53.222;6.354;2023-04-15T13:42:51;7.43;;;2.50;;
38113;SDS011;23926;53.222;6.354;2023-04-15T13:45:17;10.38;;;2.22;;
38113;SDS011;23926;53.222;6.354;2023-04-15T13:47:42;13.57;;;2.70;;
38113;SDS011;23926;53.222;6.354;2023-04-15T13:50:08;13.55;;;3.72;;
38113;SDS011;23926;53.222;6.354;2023-04-15T13:52:34;17.63;;;2.90;;
38113;SDS011;23926;53.222;6.354;2023-04-15T13:54:59;14.25;;;2.40;;
38113;SDS011;23926;53.222;6.354;2023-04-15T13:57:25;11.35;;;2.42;;
38113;SDS011;23926;53.222;6.354;2023-04-15T13:59:50;8.50;;;2.40;;
38113;SDS011;23926;53.222;6.354;2023-04-15T14:02:16;12.95;;;3.00;;
38113;SDS011;23926;53.222;6.354;2023-04-15T14:04:42;13.00;;;3.20;;
38113;SDS011;23926;53.222;6.354;2023-04-15T14:07:07;10.45;;;2.88;;
38113;SDS011;23926;53.222;6.354;2023-04-15T14:09:33;13.65;;;3.85;;
38113;SDS011;23926;53.222;6.354;2023-04-15T14:11:59;10.48;;;2.90;;
38113;SDS011;23926;53.222;6.354;2023-04-15T14:14:25;9.40;;;2.83;;
38113;SDS011;23926;53.222;6.354;2023-04-15T14:16:51;10.82;;;2.50;;
38113;SDS011;23926;53.222;6.354;2023-04-15T14:19:16;20.75;;;4.00;;
38113;SDS011;23926;53.222;6.354;2023-04-15T14:21:41;20.10;;;3.25;;
38113;SDS011;23926;53.222;6.354;2023-04-15T14:24:07;13.05;;;3.15;;
38113;SDS011;23926;53.222;6.354;2023-04-15T14:26:33;12.23;;;3.05;;
38113;SDS011;23926;53.222;6.354;2023-04-15T14:28:58;10.18;;;2.47;;
38113;SDS011;23926;53.222;6.354;2023-04-15T14:31:24;10.13;;;2.80;;
38113;SDS011;23926;53.222;6.354;2023-04-15T14:33:49;17.10;;;3.72;;
38113;SDS011;23926;53.222;6.354;2023-04-15T14:36:15;20.05;;;4.40;;
38113;SDS011;23926;53.222;6.354;2023-04-15T14:38:40;21.63;;;3.38;;
38113;SDS011;23926;53.222;6.354;2023-04-15T14:41:06;17.45;;;3.58;;
38113;SDS011;23926;53.222;6.354;2023-04-15T14:43:33;20.27;;;4.03;;
38113;SDS011;23926;53.222;6.354;2023-04-15T14:45:59;15.93;;;4.40;;
38113;SDS011;23926;53.222;6.354;2023-04-15T14:48:25;17.35;;;3.78;;
38113;SDS011;23926;53.222;6.354;2023-04-15T14:50:51;21.70;;;3.80;;
38113;SDS011;23926;53.222;6.354;2023-04-15T14:53:16;26.02;;;4.72;;
38113;SDS011;23926;53.222;6.354;2023-04-15T14:55:42;15.20;;;4.00;;
38113;SDS011;23926;53.222;6.354;2023-04-15T14:58:08;18.65;;;4.20;;